createdAt,value
2019-06-27T00:12:46.352Z,69.6
2019-06-27T00:29:30.196Z,69.2
2019-06-27T00:46:13.967Z,69.6
2019-06-27T01:02:58.141Z,69.6
2019-06-27T01:19:41.521Z,69.2
2019-06-27T01:36:25.318Z,69.6
2019-06-27T01:53:09.002Z,69.2
2019-06-27T02:09:52.653Z,69.2
2019-06-27T02:26:36.324Z,69.2
2019-06-27T02:43:19.943Z,69.6
2019-06-27T03:00:03.235Z,69.6
2019-06-27T03:16:46.177Z,69.6
2019-06-27T03:33:28.979Z,69.6
2019-06-27T03:50:11.760Z,69.6
2019-06-27T04:06:54.839Z,68.8
2019-06-27T04:23:38.162Z,68.8
2019-06-27T04:40:21.403Z,68.8
2019-06-27T04:57:04.452Z,68.8
2019-06-27T05:13:47.465Z,68.4
2019-06-27T05:23:49.597Z,67.2
2019-06-27T05:40:32.773Z,66.4
2019-06-27T05:53:55.480Z,65.6
2019-06-27T06:10:38.973Z,64.4
2019-06-27T06:17:20.622Z,63.6
2019-06-27T06:30:45.214Z,62.8
2019-06-27T06:44:08.214Z,60.4
2019-06-27T07:01:01.579Z,60.0
2019-06-27T07:07:34.519Z,60.8
2019-06-27T07:20:57.794Z,59.6
2019-06-27T07:37:42.574Z,58.8
2019-06-27T07:54:27.594Z,58.4
2019-06-27T08:01:09.834Z,58.0
2019-06-27T08:11:13.852Z,55.6
2019-06-27T08:27:58.564Z,56.8
2019-06-27T08:44:44.462Z,55.6
2019-06-27T08:54:48.858Z,54.4
2019-06-27T09:11:38.009Z,54.0
2019-06-27T09:25:00.550Z,53.6
2019-06-27T09:41:47.390Z,52.8
2019-06-27T09:58:34.897Z,50.4
2019-06-27T10:15:23.178Z,51.2
2019-06-27T10:28:49.068Z,50.4
2019-06-27T10:45:37.415Z,49.2
2019-06-27T11:02:26.121Z,48.8
2019-06-27T11:19:14.961Z,49.6
2019-06-27T11:36:04.168Z,48.0
2019-06-27T11:52:53.805Z,48.0
2019-06-27T12:09:43.572Z,48.4
2019-06-27T12:26:33.839Z,46.8
2019-06-27T12:43:24.296Z,46.4
2019-06-27T13:00:14.542Z,46.8
2019-06-27T13:17:05.354Z,46.0
2019-06-27T13:33:56.103Z,46.4
2019-06-27T13:50:47.113Z,46.0
2019-06-27T14:07:38.222Z,46.4
2019-06-27T14:24:29.642Z,45.2
2019-06-27T14:41:21.313Z,45.2
2019-06-27T14:58:13.224Z,45.2
2019-06-27T15:15:03.869Z,45.2
2019-06-27T15:25:10.587Z,46.0
2019-06-27T15:42:01.799Z,46.4
2019-06-27T15:58:51.885Z,46.8
2019-06-27T16:12:20.255Z,47.2
2019-06-27T16:29:10.988Z,47.2
2019-06-27T16:35:55.556Z,46.4
2019-06-27T16:49:25.492Z,45.6
2019-06-27T17:06:18.453Z,44.0
2019-06-27T17:23:12.376Z,44.0
2019-06-27T17:40:09.890Z,43.6
2019-06-27T17:53:37.324Z,43.2
2019-06-27T17:56:59.540Z,43.6
2019-06-27T18:03:43.919Z,44.4
2019-06-27T18:10:27.753Z,45.6
2019-06-27T18:17:11.667Z,46.8
2019-06-27T18:34:00.291Z,48.0
2019-06-27T18:50:48.068Z,49.2
2019-06-27T19:00:52.876Z,50.4
2019-06-27T19:14:18.195Z,52.0
2019-06-27T19:27:43.520Z,54.4
2019-06-27T19:38:00.963Z,55.6
2019-06-27T19:51:11.471Z,58.0
2019-06-27T19:57:53.402Z,58.4
2019-06-27T20:14:38.050Z,58.8
2019-06-27T20:31:22.240Z,58.8
2019-06-27T20:48:06.245Z,59.6
2019-06-27T21:04:49.935Z,60.4
2019-06-27T21:21:33.371Z,61.2
2019-06-27T21:38:16.467Z,62.0
2019-06-27T21:54:59.335Z,64.0
2019-06-27T22:11:42.004Z,63.6
2019-06-27T22:28:24.494Z,64.4
2019-06-27T22:45:06.807Z,64.8
2019-06-27T23:01:49.109Z,64.8
2019-06-27T23:18:31.437Z,65.2
2019-06-27T23:35:13.637Z,66.0
2019-06-27T23:51:55.683Z,66.8
